Time;durP1;ratioP1;P1;durP2;ratioP2;P2;SDS_P1;SDS_P2;PMS_P1;PMS_P2;Temp;Humidity;BMP_temperature;BMP_pressure;BME280_temperature;BME280_humidity;BME280_pressure;Samples;Min_cycle;Max_cycle;Signal;HPM_P1;HPM_P2
2021/10/05 00:02:10;;;;;;;1.08;0.70;;;;;;;11.47;100.00;100698.47;6408458;23;20012;-78
2021/10/05 00:04:41;;;;;;;4.47;0.90;;;;;;;11.59;100.00;100701.50;6406876;23;20001;-78
2021/10/05 00:07:11;;;;;;;1.48;0.70;;;;;;;11.44;100.00;100694.19;6395650;23;20011;-78
2021/10/05 00:09:41;;;;;;;1.10;0.70;;;;;;;11.46;100.00;100684.53;6407144;23;20405;-79
2021/10/05 00:12:11;;;;;;;1.67;0.85;;;;;;;11.52;100.00;100681.69;6395529;23;20016;-79
2021/10/05 00:14:42;;;;;;;1.90;0.82;;;;;;;11.47;100.00;100683.63;6394998;23;20001;-78
2021/10/05 00:17:13;;;;;;;1.33;0.88;;;;;;;11.41;100.00;100683.00;6401337;23;20445;-78
2021/10/05 00:19:43;;;;;;;1.40;0.90;;;;;;;11.47;100.00;100682.78;6405581;23;20079;-79
2021/10/05 00:22:14;;;;;;;1.48;0.80;;;;;;;11.44;100.00;100681.13;6407792;23;20092;-78
2021/10/05 00:24:45;;;;;;;1.83;0.95;;;;;;;11.38;100.00;100673.50;6394298;23;20001;-78
2021/10/05 00:27:15;;;;;;;2.05;0.85;;;;;;;11.37;100.00;100677.03;6407773;23;20007;-79
2021/10/05 00:29:45;;;;;;;3.78;1.00;;;;;;;11.47;100.00;100683.63;6406923;23;20158;-78
2021/10/05 00:32:16;;;;;;;2.42;0.90;;;;;;;11.36;100.00;100672.72;6406998;23;20009;-79
2021/10/05 00:34:46;;;;;;;2.13;0.93;;;;;;;11.33;100.00;100664.97;6407261;23;20476;-79
2021/10/05 00:37:16;;;;;;;1.92;1.13;;;;;;;11.32;100.00;100658.03;6407316;23;20240;-79
2021/10/05 00:39:47;;;;;;;1.80;0.90;;;;;;;11.34;100.00;100656.22;6406956;23;20016;-78
2021/10/05 00:42:17;;;;;;;4.65;1.08;;;;;;;11.37;100.00;100658.72;6406219;23;20016;-78
2021/10/05 00:44:49;;;;;;;2.30;1.00;;;;;;;11.28;100.00;100660.81;6395094;23;20044;-79
2021/10/05 00:47:19;;;;;;;2.10;1.10;;;;;;;11.30;100.00;100659.00;6407157;23;20304;-79
2021/10/05 00:49:50;;;;;;;1.90;1.02;;;;;;;11.28;100.00;100658.22;6407072;23;20001;-78
2021/10/05 00:52:20;;;;;;;1.35;0.90;;;;;;;11.24;100.00;100654.84;6408018;23;20188;-78
2021/10/05 00:54:50;;;;;;;3.30;0.95;;;;;;;11.42;100.00;100642.84;6407899;23;20017;-78
2021/10/05 00:57:21;;;;;;;3.00;1.10;;;;;;;11.52;100.00;100628.47;6408253;23;20001;-78
2021/10/05 00:59:52;;;;;;;2.35;1.13;;;;;;;11.34;100.00;100624.81;6395293;23;20037;-78
2021/10/05 01:02:22;;;;;;;2.47;1.05;;;;;;;11.41;100.00;100623.66;6408358;23;20083;-79
2021/10/05 01:04:52;;;;;;;4.32;1.20;;;;;;;11.40;100.00;100627.19;6407755;23;20404;-79
2021/10/05 01:07:23;;;;;;;1.90;0.90;;;;;;;11.44;100.00;100625.31;6408217;23;20001;-78
2021/10/05 01:09:54;;;;;;;2.05;1.02;;;;;;;11.42;100.00;100621.91;6406782;23;20091;-78
2021/10/05 01:12:25;;;;;;;2.17;1.00;;;;;;;11.48;100.00;100632.97;6407049;23;20079;-78
2021/10/05 01:14:55;;;;;;;2.38;1.23;;;;;;;11.47;100.00;100641.75;6407305;23;20032;-78
2021/10/05 01:17:25;;;;;;;4.30;1.10;;;;;;;11.42;100.00;100635.84;6395925;23;20005;-78
2021/10/05 01:19:55;;;;;;;1.60;1.05;;;;;;;11.39;100.00;100633.34;6407026;23;20040;-79
2021/10/05 01:22:26;;;;;;;3.63;1.02;;;;;;;11.51;100.00;100621.53;6407432;23;20443;-78
2021/10/05 01:24:56;;;;;;;2.15;1.10;;;;;;;11.57;100.00;100622.19;6394655;23;20032;-78
2021/10/05 01:27:26;;;;;;;2.15;1.00;;;;;;;11.64;100.00;100607.94;6407325;23;20333;-78
2021/10/05 01:29:57;;;;;;;1.05;0.80;;;;;;;11.64;100.00;100609.72;6406520;23;20016;-78
2021/10/05 01:32:27;;;;;;;1.63;1.10;;;;;;;11.55;100.00;100608.28;6407248;23;20005;-78
2021/10/05 01:34:57;;;;;;;2.25;1.13;;;;;;;11.62;100.00;100614.19;6406757;23;20001;-79
2021/10/05 01:37:28;;;;;;;2.53;1.15;;;;;;;11.63;100.00;100608.84;6394476;23;20017;-78
2021/10/05 01:39:58;;;;;;;1.40;0.95;;;;;;;11.80;100.00;100610.81;6405932;23;19997;-78
2021/10/05 01:42:29;;;;;;;1.45;0.98;;;;;;;11.79;100.00;100615.19;6394775;23;20005;-78
2021/10/05 01:44:59;;;;;;;1.60;0.77;;;;;;;11.92;100.00;100607.72;6407104;23;20001;-78
2021/10/05 01:47:29;;;;;;;2.25;1.17;;;;;;;11.85;100.00;100607.13;6395225;23;20028;-78
2021/10/05 01:49:59;;;;;;;2.95;1.20;;;;;;;11.88;100.00;100601.75;6394114;23;20004;-78
2021/10/05 01:52:30;;;;;;;1.50;1.05;;;;;;;11.93;100.00;100597.16;6394333;23;20005;-78
2021/10/05 01:55:00;;;;;;;1.75;0.95;;;;;;;11.98;100.00;100591.75;6394839;23;19997;-78
2021/10/05 01:57:30;;;;;;;1.85;1.27;;;;;;;12.03;100.00;100589.78;6395464;23;20458;-79
2021/10/05 02:00:01;;;;;;;1.83;0.90;;;;;;;12.02;100.00;100588.94;6407728;23;20003;-78
2021/10/05 02:02:31;;;;;;;2.05;1.02;;;;;;;11.95;100.00;100584.84;6393496;23;20009;-79
2021/10/05 02:05:02;;;;;;;2.20;0.93;;;;;;;11.96;100.00;100588.34;6407316;23;20069;-79
2021/10/05 02:07:34;;;;;;;1.80;0.98;;;;;;;12.09;100.00;100590.38;6407131;23;20001;-79
2021/10/05 02:10:07;;;;;;;2.70;0.95;;;;;;;11.78;100.00;100584.69;6407319;23;20048;-78
2021/10/05 02:12:37;;;;;;;1.38;0.80;;;;;;;11.79;100.00;100581.16;6405762;23;20125;-78
2021/10/05 02:15:08;;;;;;;1.58;1.15;;;;;;;11.72;100.00;100574.47;6404526;23;20015;-78
2021/10/05 02:17:38;;;;;;;1.63;1.20;;;;;;;11.58;100.00;100576.78;6405179;23;20001;-78
2021/10/05 02:20:09;;;;;;;2.53;1.23;;;;;;;11.60;100.00;100559.25;6406899;23;20473;-78
2021/10/05 02:22:40;;;;;;;3.25;1.30;;;;;;;11.89;100.00;100558.94;6405768;23;20076;-78
2021/10/05 02:25:10;;;;;;;0.98;0.88;;;;;;;11.89;100.00;100551.06;6406353;23;20093;-78
2021/10/05 02:27:41;;;;;;;3.17;1.30;;;;;;;11.89;100.00;100552.81;6405085;23;20031;-79
2021/10/05 02:30:11;;;;;;;2.30;1.13;;;;;;;11.77;100.00;100550.75;6394181;23;20028;-78
2021/10/05 02:32:42;;;;;;;1.60;1.10;;;;;;;11.76;100.00;100544.63;6406056;23;20051;-78
2021/10/05 02:35:12;;;;;;;3.30;1.30;;;;;;;11.70;100.00;100544.03;6405996;23;19997;-78
2021/10/05 02:37:43;;;;;;;1.85;1.20;;;;;;;11.77;100.00;100545.50;6405628;23;20003;-79
2021/10/05 02:40:13;;;;;;;3.03;1.15;;;;;;;11.82;100.00;100539.13;6405654;23;20576;-78
2021/10/05 02:42:43;;;;;;;1.65;1.10;;;;;;;11.79;100.00;100523.56;6405867;23;20003;-78
2021/10/05 02:45:14;;;;;;;1.65;1.00;;;;;;;12.00;100.00;100521.81;6394521;23;20005;-78
2021/10/05 02:47:44;;;;;;;2.35;1.08;;;;;;;11.86;100.00;100525.03;6406777;23;20651;-78
2021/10/05 02:50:14;;;;;;;3.10;1.30;;;;;;;11.96;100.00;100510.59;6394044;23;20084;-78
2021/10/05 02:52:45;;;;;;;2.15;1.48;;;;;;;11.88;100.00;100511.84;6405923;23;20032;-78
2021/10/05 02:55:15;;;;;;;2.83;1.50;;;;;;;11.68;100.00;100501.34;6406276;23;20004;-78
2021/10/05 02:57:45;;;;;;;4.05;1.63;;;;;;;11.73;100.00;100491.53;6405847;23;20065;-79
2021/10/05 03:00:15;;;;;;;4.00;1.55;;;;;;;11.67;100.00;100497.91;6406461;23;20072;-78
2021/10/05 03:02:46;;;;;;;3.17;1.80;;;;;;;11.66;100.00;100490.09;6405635;23;20007;-78
2021/10/05 03:05:16;;;;;;;2.47;1.63;;;;;;;11.68;100.00;100483.03;6405975;23;20012;-79
2021/10/05 03:07:47;;;;;;;2.85;1.60;;;;;;;11.69;100.00;100474.25;6407092;23;20433;-79
2021/10/05 03:10:17;;;;;;;3.65;1.85;;;;;;;11.94;100.00;100467.91;6395557;23;20011;-78
2021/10/05 03:12:47;;;;;;;2.33;1.70;;;;;;;11.86;100.00;100454.31;6395750;23;20011;-79
2021/10/05 03:15:18;;;;;;;3.63;1.73;;;;;;;11.77;100.00;100459.94;6406920;23;19997;-78
2021/10/05 03:17:48;;;;;;;3.38;1.80;;;;;;;11.66;100.00;100454.31;6394258;23;19999;-78
2021/10/05 03:20:18;;;;;;;2.97;1.60;;;;;;;11.73;100.00;100454.88;6394747;23;20004;-79
2021/10/05 03:22:49;;;;;;;2.78;1.60;;;;;;;11.79;100.00;100454.66;6408195;23;20005;-80
2021/10/05 03:25:19;;;;;;;3.45;1.98;;;;;;;11.79;100.00;100454.66;6407809;23;20001;-79
2021/10/05 03:27:50;;;;;;;3.03;1.60;;;;;;;11.78;100.00;100451.16;6408873;23;20232;-79
2021/10/05 03:30:20;;;;;;;2.90;1.35;;;;;;;11.83;100.00;100451.84;6409135;23;20336;-80
2021/10/05 03:32:50;;;;;;;2.22;1.50;;;;;;;11.91;100.00;100449.72;6397614;23;20011;-80
2021/10/05 03:35:20;;;;;;;3.10;1.70;;;;;;;11.89;100.00;100451.56;6396934;23;20008;-80
2021/10/05 03:37:51;;;;;;;4.03;1.98;;;;;;;11.89;100.00;100446.31;6408802;23;20337;-80
2021/10/05 03:40:21;;;;;;;2.60;1.52;;;;;;;12.03;100.00;100433.50;6395830;23;20001;-80
2021/10/05 03:42:51;;;;;;;3.30;1.95;;;;;;;12.09;100.00;100438.44;6396589;23;20459;-80
2021/10/05 03:45:22;;;;;;;5.50;2.00;;;;;;;12.11;100.00;100435.78;6408312;23;20437;-80
2021/10/05 03:47:52;;;;;;;2.65;1.65;;;;;;;12.29;100.00;100434.97;6409166;23;20008;-80
2021/10/05 03:50:22;;;;;;;5.97;2.00;;;;;;;12.02;100.00;100423.94;6395827;23;19997;-80
2021/10/05 03:52:53;;;;;;;3.20;2.00;;;;;;;12.12;100.00;100422.59;6396589;23;20005;-80
2021/10/05 03:55:23;;;;;;;3.58;1.90;;;;;;;12.17;100.00;100418.03;6409344;23;19997;-80
2021/10/05 03:57:54;;;;;;;3.60;2.05;;;;;;;12.24;100.00;100421.19;6398878;23;20155;-80
2021/10/05 04:00:24;;;;;;;3.63;2.60;;;;;;;12.28;100.00;100409.69;6408532;23;20441;-79
2021/10/05 04:02:56;;;;;;;3.70;2.50;;;;;;;12.40;100.00;100412.59;6410178;23;20755;-80
2021/10/05 04:05:27;;;;;;;3.80;2.63;;;;;;;12.36;100.00;100411.03;6408545;23;20032;-80
2021/10/05 04:07:57;;;;;;;4.82;2.78;;;;;;;12.48;100.00;100410.44;6396679;23;20504;-80
2021/10/05 04:10:29;;;;;;;4.15;2.80;;;;;;;12.31;100.00;100409.53;6393249;23;20396;-80
2021/10/05 04:12:59;;;;;;;5.22;3.17;;;;;;;12.23;100.00;100409.88;6395259;23;20061;-80
2021/10/05 04:15:29;;;;;;;5.90;3.83;;;;;;;12.23;100.00;100404.63;6396897;23;20016;-81
2021/10/05 04:17:59;;;;;;;5.38;3.55;;;;;;;12.29;100.00;100401.72;6411244;23;20004;-80
2021/10/05 04:20:30;;;;;;;6.00;3.65;;;;;;;12.23;100.00;100404.63;6397285;23;20005;-80
2021/10/05 04:23:00;;;;;;;6.18;3.80;;;;;;;12.17;100.00;100404.94;6397157;23;20001;-80
2021/10/05 04:25:33;;;;;;;6.18;3.80;;;;;;;12.29;100.00;100395.66;6409021;23;20448;-80
2021/10/05 04:28:04;;;;;;;5.40;3.70;;;;;;;12.27;100.00;100395.72;6397618;23;20008;-80
2021/10/05 04:30:34;;;;;;;6.47;4.03;;;;;;;12.36;100.00;100399.69;6407780;23;20001;-81
2021/10/05 04:33:04;;;;;;;5.35;3.70;;;;;;;12.30;100.00;100400.81;6408333;23;20001;-80
2021/10/05 04:35:35;;;;;;;5.45;3.65;;;;;;;12.26;100.00;100391.38;6396516;23;20044;-80
2021/10/05 04:38:05;;;;;;;5.63;3.53;;;;;;;12.04;100.00;100403.75;6397480;23;20020;-80
2021/10/05 04:40:35;;;;;;;6.28;3.55;;;;;;;12.09;100.00;100400.94;6397251;23;20036;-80
2021/10/05 04:43:06;;;;;;;5.80;3.83;;;;;;;11.93;100.00;100395.50;6396769;23;20088;-80
2021/10/05 04:45:36;;;;;;;6.43;4.35;;;;;;;11.94;100.00;100386.72;6397181;23;20001;-80
2021/10/05 04:48:07;;;;;;;6.40;3.97;;;;;;;12.19;100.00;100391.72;6409902;23;20311;-80
2021/10/05 04:50:37;;;;;;;4.75;3.38;;;;;;;12.12;100.00;100385.09;6409274;23;20296;-80
2021/10/05 04:53:08;;;;;;;7.90;3.60;;;;;;;12.03;100.00;100380.25;6395404;23;20083;-80
2021/10/05 04:55:41;;;;;;;6.07;3.85;;;;;;;12.05;100.00;100379.25;6408535;23;20163;-80
2021/10/05 04:58:11;;;;;;;5.32;3.67;;;;;;;11.98;100.00;100376.97;6396596;23;20332;-80
2021/10/05 05:00:41;;;;;;;7.18;3.90;;;;;;;11.93;100.00;100368.50;6396790;23;20024;-81
2021/10/05 05:03:12;;;;;;;6.82;3.85;;;;;;;11.92;100.00;100365.00;6395837;23;20001;-80
2021/10/05 05:05:43;;;;;;;5.93;3.85;;;;;;;11.85;100.00;100358.34;6407506;23;20337;-80
2021/10/05 05:08:13;;;;;;;6.38;3.88;;;;;;;11.83;100.00;100357.56;6421341;23;20064;-80
2021/10/05 05:10:43;;;;;;;6.75;3.70;;;;;;;11.97;100.00;100354.34;6407739;23;20485;-80
2021/10/05 05:13:14;;;;;;;4.30;3.00;;;;;;;12.07;100.00;100346.00;6407194;23;20326;-80
2021/10/05 05:15:44;;;;;;;4.22;3.13;;;;;;;11.91;100.00;100350.22;6396312;23;20001;-80
2021/10/05 05:18:14;;;;;;;5.28;3.15;;;;;;;12.03;100.00;100347.06;6408377;23;20005;-80
2021/10/05 05:20:45;;;;;;;5.15;3.45;;;;;;;11.99;100.00;100337.59;6397564;23;20008;-80
2021/10/05 05:23:16;;;;;;;5.57;3.35;;;;;;;11.96;100.00;100336.91;6408050;23;20008;-80
2021/10/05 05:25:46;;;;;;;5.38;3.85;;;;;;;11.88;100.00;100334.66;6396586;23;20032;-80
2021/10/05 05:28:16;;;;;;;5.20;3.28;;;;;;;11.98;100.00;100335.91;6407728;23;20012;-80
2021/10/05 05:30:47;;;;;;;4.93;3.20;;;;;;;11.98;100.00;100335.91;6396034;23;20005;-80
2021/10/05 05:33:18;;;;;;;6.28;3.75;;;;;;;11.92;100.00;100330.97;6407387;23;20036;-80
2021/10/05 05:35:49;;;;;;;6.80;3.58;;;;;;;11.80;100.00;100331.50;6395810;23;20001;-80
2021/10/05 05:38:21;;;;;;;6.93;3.83;;;;;;;11.80;100.00;100323.63;6406769;23;20153;-80
2021/10/05 05:40:53;;;;;;;5.35;3.35;;;;;;;11.80;100.00;100321.03;6395359;23;20384;-80
2021/10/05 05:43:23;;;;;;;5.80;3.42;;;;;;;11.91;100.00;100318.78;6393825;23;20015;-80
2021/10/05 05:45:54;;;;;;;5.93;3.33;;;;;;;11.98;100.00;100314.97;6406773;23;20473;-80
2021/10/05 05:48:24;;;;;;;5.43;3.28;;;;;;;12.04;100.00;100319.94;6395587;23;20088;-80
2021/10/05 05:50:54;;;;;;;5.90;3.85;;;;;;;12.11;100.00;100313.50;6408658;23;20008;-80
2021/10/05 05:53:25;;;;;;;7.03;3.72;;;;;;;11.98;100.00;100303.66;6395814;23;20033;-80
2021/10/05 05:55:55;;;;;;;6.35;4.15;;;;;;;11.96;100.00;100305.50;6407855;23;20035;-80
2021/10/05 05:58:25;;;;;;;9.57;5.75;;;;;;;12.08;100.00;100297.91;6408855;23;20055;-80
2021/10/05 06:00:56;;;;;;;13.25;7.53;;;;;;;12.04;100.00;100303.34;6409062;23;20001;-80
2021/10/05 06:03:26;;;;;;;12.13;8.35;;;;;;;12.07;100.00;100296.22;6395821;23;20460;-80
2021/10/05 06:05:56;;;;;;;11.98;8.38;;;;;;;12.14;100.00;100297.63;6396812;23;20009;-80
2021/10/05 06:08:27;;;;;;;14.43;8.68;;;;;;;12.22;100.00;100290.28;6409093;23;20194;-80
2021/10/05 06:10:57;;;;;;;15.27;10.05;;;;;;;12.13;100.00;100297.72;6397640;23;20043;-80
2021/10/05 06:13:27;;;;;;;17.83;10.35;;;;;;;12.08;100.00;100295.28;6398157;23;20429;-80
2021/10/05 06:15:57;;;;;;;16.40;10.13;;;;;;;12.08;100.00;100295.28;6410571;23;20056;-81
2021/10/05 06:18:28;;;;;;;15.52;9.77;;;;;;;12.15;100.00;100294.06;6398264;23;20001;-80
2021/10/05 06:20:58;;;;;;;15.18;10.35;;;;;;;12.10;100.00;100285.59;6396482;23;20032;-80
2021/10/05 06:23:28;;;;;;;15.65;10.32;;;;;;;12.16;100.00;100290.53;6409741;23;20009;-79
2021/10/05 06:25:59;;;;;;;15.88;10.32;;;;;;;12.05;100.00;100295.44;6397655;23;20001;-80
2021/10/05 06:28:30;;;;;;;17.65;11.23;;;;;;;11.99;100.00;100293.09;6397736;23;20028;-80
2021/10/05 06:31:01;;;;;;;17.05;11.07;;;;;;;12.08;100.00;100284.81;6397056;23;20231;-80
2021/10/05 06:33:32;;;;;;;18.60;11.70;;;;;;;12.11;100.00;100289.91;6396774;23;20083;-82
2021/10/05 06:36:02;;;;;;;18.77;11.75;;;;;;;12.08;100.00;100283.97;6397050;23;19997;-81
2021/10/05 06:38:34;;;;;;;17.48;11.38;;;;;;;12.12;100.00;100286.38;6396208;23;20005;-80
2021/10/05 06:41:05;;;;;;;16.98;11.20;;;;;;;12.09;100.00;100297.00;6396046;23;20005;-81
2021/10/05 06:43:35;;;;;;;16.90;10.90;;;;;;;12.15;100.00;100291.47;6398385;23;20346;-80
2021/10/05 06:46:06;;;;;;;19.50;11.68;;;;;;;12.15;100.00;100290.63;6397109;23;20083;-81
2021/10/05 06:48:36;;;;;;;18.60;11.40;;;;;;;12.20;100.00;100288.63;6408725;23;20323;-81
2021/10/05 06:51:06;;;;;;;19.73;11.77;;;;;;;12.21;100.00;100283.34;6396088;23;20287;-81
2021/10/05 06:53:37;;;;;;;17.45;11.60;;;;;;;12.15;100.00;100286.22;6395549;23;20033;-80
2021/10/05 06:56:07;;;;;;;18.60;10.98;;;;;;;12.06;100.00;100276.19;6410595;23;20447;-81
2021/10/05 06:58:38;;;;;;;17.92;10.95;;;;;;;12.12;100.00;100281.13;6400809;23;20005;-81
2021/10/05 07:01:08;;;;;;;17.45;11.02;;;;;;;12.09;100.00;100278.66;6399743;23;20419;-81
2021/10/05 07:03:38;;;;;;;15.50;10.15;;;;;;;12.10;100.00;100272.50;6400920;23;20421;-81
2021/10/05 07:06:08;;;;;;;16.95;10.65;;;;;;;12.12;100.00;100275.88;6413207;23;20406;-81
2021/10/05 07:08:39;;;;;;;18.80;10.98;;;;;;;12.10;100.00;100276.91;6399932;23;20083;-81
2021/10/05 07:11:09;;;;;;;14.52;10.30;;;;;;;12.13;100.00;100269.72;6400809;23;20019;-81
2021/10/05 07:13:40;;;;;;;18.73;10.68;;;;;;;12.12;100.00;100269.81;6401580;23;20032;-81
2021/10/05 07:16:10;;;;;;;16.05;10.05;;;;;;;12.15;100.00;100275.75;6401007;23;20004;-81
2021/10/05 07:18:40;;;;;;;17.25;10.38;;;;;;;12.13;100.00;100274.13;6413446;23;20396;-81
2021/10/05 07:21:11;;;;;;;17.70;10.95;;;;;;;12.08;100.00;100271.72;6400655;23;20079;-81
2021/10/05 07:23:41;;;;;;;16.30;9.95;;;;;;;12.14;100.00;100266.19;6401146;23;20005;-80
2021/10/05 07:26:12;;;;;;;15.23;9.60;;;;;;;12.20;100.00;100267.69;6410887;23;20000;-80
2021/10/05 07:28:42;;;;;;;14.65;9.45;;;;;;;12.21;100.00;100259.75;6412757;23;20004;-82
2021/10/05 07:31:13;;;;;;;15.85;9.45;;;;;;;12.22;100.00;100250.97;6412689;23;20088;-80
2021/10/05 07:33:44;;;;;;;15.23;8.75;;;;;;;12.18;100.00;100256.41;6399415;23;20116;-81
2021/10/05 07:36:17;;;;;;;12.07;7.50;;;;;;;12.24;100.00;100249.13;6401434;23;20040;-81
2021/10/05 07:38:47;;;;;;;13.02;7.78;;;;;;;12.22;100.00;100243.13;6398587;23;20136;-81
2021/10/05 07:41:17;;;;;;;12.77;8.30;;;;;;;12.32;100.00;100238.28;6400630;23;20036;-81
2021/10/05 07:43:47;;;;;;;12.25;7.68;;;;;;;12.47;100.00;100229.69;6399378;23;20005;-81
2021/10/05 07:46:19;;;;;;;10.23;7.07;;;;;;;12.39;100.00;100234.44;6400781;23;20267;-81
2021/10/05 07:48:49;;;;;;;14.20;7.47;;;;;;;12.33;100.00;100219.84;6411647;23;20015;-81
2021/10/05 07:51:19;;;;;;;11.57;7.35;;;;;;;12.30;100.00;100216.53;6397252;23;20044;-80
2021/10/05 07:53:50;;;;;;;11.30;7.30;;;;;;;12.42;100.00;100214.19;6397443;23;20004;-81
2021/10/05 07:56:20;;;;;;;11.38;7.05;;;;;;;12.31;100.00;100213.84;6398724;23;20075;-81
2021/10/05 07:58:50;;;;;;;11.38;6.28;;;;;;;12.36;100.00;100204.00;6397395;23;20249;-81
2021/10/05 08:01:20;;;;;;;11.13;6.18;;;;;;;12.29;100.00;100205.19;6398716;23;20464;-81
2021/10/05 08:03:51;;;;;;;9.80;5.57;;;;;;;12.37;100.00;100203.06;6396442;23;20032;-81
2021/10/05 08:06:21;;;;;;;8.80;5.18;;;;;;;12.45;100.00;100200.91;6409185;23;20012;-81
2021/10/05 08:08:52;;;;;;;5.30;3.47;;;;;;;12.44;100.00;100195.78;6396279;23;20012;-81
2021/10/05 08:11:23;;;;;;;5.47;2.95;;;;;;;12.46;100.00;100192.13;6410096;23;20005;-80
2021/10/05 08:13:53;;;;;;;4.43;2.70;;;;;;;12.48;100.00;100189.44;6397509;23;20016;-81
2021/10/05 08:16:30;;;;;;;5.35;3.20;;;;;;;12.49;100.00;100188.50;6397098;23;20091;-81
2021/10/05 08:19:01;;;;;;;6.32;3.35;;;;;;;12.43;100.00;100192.28;6408584;23;20081;-81
2021/10/05 08:21:32;;;;;;;6.47;3.30;;;;;;;12.45;100.00;100190.44;6396008;23;20017;-81
2021/10/05 08:24:02;;;;;;;4.82;3.30;;;;;;;12.57;100.00;100192.44;6395874;23;20012;-81
2021/10/05 08:26:32;;;;;;;6.15;3.53;;;;;;;12.47;100.00;100187.75;6407988;23;20345;-82
2021/10/05 08:29:03;;;;;;;6.13;3.78;;;;;;;12.35;100.00;100181.34;6394772;23;20001;-81
2021/10/05 08:31:34;;;;;;;7.75;3.70;;;;;;;12.35;100.00;100172.63;6395604;23;20009;-82
2021/10/05 08:34:04;;;;;;;6.55;3.55;;;;;;;12.51;100.00;100177.03;6395009;23;20047;-81
2021/10/05 08:36:35;;;;;;;6.50;3.35;;;;;;;12.47;100.00;100177.25;6407293;23;20325;-81
2021/10/05 08:39:05;;;;;;;6.85;3.65;;;;;;;12.31;100.00;100171.91;6394233;23;20025;-81
2021/10/05 08:41:39;;;;;;;7.90;3.65;;;;;;;12.29;100.00;100172.94;6394822;23;19997;-81
2021/10/05 08:44:09;;;;;;;4.75;3.10;;;;;;;12.47;100.00;100167.63;6394247;23;20008;-81
2021/10/05 08:46:41;;;;;;;4.78;3.40;;;;;;;12.45;100.00;100172.09;6395384;23;20332;-81
2021/10/05 08:49:11;;;;;;;8.45;3.75;;;;;;;12.50;100.00;100164.84;6395749;23;20289;-82
2021/10/05 08:51:41;;;;;;;5.40;2.67;;;;;;;12.59;100.00;100167.00;6407194;23;20007;-81
2021/10/05 08:54:12;;;;;;;5.13;3.28;;;;;;;12.69;100.00;100173.50;6406514;23;20252;-82
2021/10/05 08:56:44;;;;;;;6.45;3.72;;;;;;;12.68;100.00;100161.31;6394890;23;20005;-81
2021/10/05 08:59:15;;;;;;;7.55;4.05;;;;;;;12.62;100.00;100161.59;6395225;23;20012;-81
2021/10/05 09:01:49;;;;;;;7.80;4.75;;;;;;;12.60;100.00;100152.97;6393010;23;20036;-81
2021/10/05 09:04:21;;;;;;;7.30;4.50;;;;;;;12.66;100.00;100146.56;6395442;23;20016;-81
2021/10/05 09:06:54;;;;;;;8.70;5.35;;;;;;;12.65;100.00;100143.09;6396690;23;20032;-82
2021/10/05 09:09:24;;;;;;;9.35;5.55;;;;;;;12.71;100.00;100142.81;6394810;23;20005;-81
2021/10/05 09:11:54;;;;;;;9.35;5.28;;;;;;;12.87;100.00;100138.47;6395228;23;20511;-82
2021/10/05 09:14:36;;;;;;;7.95;5.13;;;;;;;12.82;100.00;100129.97;6394807;23;20005;-81
2021/10/05 09:17:07;;;;;;;7.22;4.88;;;;;;;12.86;100.00;100128.91;6407140;23;20337;-81
2021/10/05 09:19:37;;;;;;;9.13;5.18;;;;;;;12.98;100.00;100129.13;6395650;23;19997;-81
2021/10/05 09:22:15;;;;;;;7.28;4.75;;;;;;;13.08;100.00;100121.63;6395957;23;20039;-82
2021/10/05 09:24:47;;;;;;;7.38;4.75;;;;;;;12.98;100.00;100119.56;6407498;23;20005;-81
2021/10/05 09:27:17;;;;;;;7.85;4.68;;;;;;;12.78;100.00;100115.31;6408015;23;20005;-81
2021/10/05 09:29:49;;;;;;;7.70;4.63;;;;;;;13.13;100.00;100111.72;6394998;23;20099;-82
2021/10/05 09:32:22;;;;;;;7.68;4.80;;;;;;;13.20;100.00;100113.13;6412117;23;20084;-83
2021/10/05 09:34:55;;;;;;;10.63;7.50;;;;;;;13.01;100.00;100102.75;6426556;23;20001;-83
2021/10/05 09:37:28;;;;;;;12.48;7.95;;;;;;;13.10;100.00;100101.41;6423514;23;20083;-83
2021/10/05 09:40:05;;;;;;;18.63;14.07;;;;;;;13.11;100.00;100098.72;6413831;23;20001;-83
2021/10/05 09:42:43;;;;;;;42.13;31.77;;;;;;;13.20;100.00;100087.72;6411968;23;20459;-83
2021/10/05 09:45:17;;;;;;;93.13;69.05;;;;;;;13.18;100.00;100088.72;6412096;23;20009;-83
2021/10/05 09:47:52;;;;;;;94.82;72.35;;;;;;;13.06;100.00;100086.75;6413280;23;20004;-83
2021/10/05 09:50:43;;;;;;;100.43;76.45;;;;;;;13.17;100.00;100084.38;6413574;23;20064;-83
2021/10/05 09:53:16;;;;;;;88.65;67.72;;;;;;;13.21;100.00;100078.91;6413079;23;20004;-83
2021/10/05 09:55:46;;;;;;;85.85;64.80;;;;;;;13.31;100.00;100074.00;6412149;23;20009;-83
2021/10/05 09:58:17;;;;;;;83.88;64.45;;;;;;;13.33;100.00;100082.63;6414514;23;20061;-83
2021/10/05 10:00:48;;;;;;;91.72;67.10;;;;;;;13.18;100.00;100080.84;6413870;23;20025;-83
2021/10/05 10:03:19;;;;;;;82.57;60.70;;;;;;;13.23;100.00;100066.53;6413992;23;20005;-83
2021/10/05 10:05:49;;;;;;;87.50;65.55;;;;;;;13.01;100.00;100060.78;6411513;23;20007;-83
2021/10/05 10:08:21;;;;;;;81.70;58.85;;;;;;;13.00;100.00;100063.47;6412327;23;20012;-83
2021/10/05 10:10:54;;;;;;;76.82;56.33;;;;;;;12.76;100.00;100064.75;6413026;23;20008;-83
2021/10/05 10:13:24;;;;;;;78.15;56.22;;;;;;;12.88;100.00;100053.63;6412136;23;19997;-83
2021/10/05 10:15:59;;;;;;;69.22;51.30;;;;;;;12.84;100.00;100046.81;6412827;23;20012;-82
2021/10/05 10:18:29;;;;;;;62.65;44.40;;;;;;;12.96;100.00;100050.63;6413021;23;20009;-83
2021/10/05 10:21:04;;;;;;;55.53;39.03;;;;;;;12.89;100.00;100055.31;6414200;23;19997;-83
2021/10/05 10:23:37;;;;;;;64.45;45.47;;;;;;;13.10;100.00;100054.19;6414277;23;20005;-83
2021/10/05 10:26:18;;;;;;;66.03;48.45;;;;;;;13.06;100.00;100052.66;6413142;23;20012;-82
2021/10/05 10:28:58;;;;;;;63.45;46.15;;;;;;;12.82;100.00;100048.66;6413226;23;20009;-83
2021/10/05 10:31:32;;;;;;;62.83;44.97;;;;;;;12.84;100.00;100049.44;6424090;23;20024;-83
2021/10/05 10:34:03;;;;;;;56.65;41.63;;;;;;;12.99;100.00;100052.13;6413246;23;20012;-83
2021/10/05 10:36:43;;;;;;;51.13;38.42;;;;;;;13.12;100.00;100049.69;6415023;23;20001;-83
2021/10/05 10:39:18;;;;;;;50.63;38.17;;;;;;;13.12;100.00;100047.94;6426722;23;20009;-83
2021/10/05 10:41:51;;;;;;;49.35;35.42;;;;;;;13.27;100.00;100043.63;6424871;23;20001;-82
2021/10/05 10:44:37;;;;;;;37.25;28.52;;;;;;;13.51;100.00;100029.13;6411926;23;20055;-83
2021/10/05 10:47:14;;;;;;;41.80;30.88;;;;;;;13.42;100.00;100024.41;6412569;23;20004;-83
2021/10/05 10:49:57;;;;;;;37.53;28.73;;;;;;;13.36;100.00;100020.34;6424332;23;20064;-83
2021/10/05 10:52:31;;;;;;;35.88;25.58;;;;;;;13.16;100.00;100024.97;6412095;23;20012;-83
2021/10/05 10:55:04;;;;;;;36.22;23.42;;;;;;;13.16;100.00;100028.47;6412257;23;20001;-82
2021/10/05 10:57:43;;;;;;;33.97;25.35;;;;;;;13.27;100.00;100015.56;6412374;23;20001;-83
2021/10/05 11:00:21;;;;;;;37.75;26.73;;;;;;;13.32;100.00;100018.81;6412759;23;20001;-83
2021/10/05 11:03:00;;;;;;;36.38;25.05;;;;;;;13.63;100.00;100012.69;6398745;23;20001;-81
2021/10/05 11:05:33;;;;;;;33.45;25.13;;;;;;;13.60;100.00;100016.31;6406977;23;20009;-81
2021/10/05 11:08:12;;;;;;;32.42;25.27;;;;;;;13.81;100.00;100016.88;6408244;23;20001;-81
2021/10/05 11:10:42;;;;;;;31.33;23.67;;;;;;;14.01;100.00;100014.81;6407238;23;20060;-81
2021/10/05 11:13:13;;;;;;;27.65;21.30;;;;;;;14.10;100.00;100009.00;6394765;23;20096;-81
2021/10/05 11:15:47;;;;;;;22.05;16.42;;;;;;;13.90;100.00;100008.50;6394438;23;20353;-81
2021/10/05 11:18:19;;;;;;;19.98;15.68;;;;;;;13.93;100.00;100013.56;6394264;23;20013;-81
2021/10/05 11:20:52;;;;;;;19.58;15.50;;;;;;;14.04;100.00;100013.75;6394619;23;20020;-81
2021/10/05 11:23:25;;;;;;;20.27;14.77;;;;;;;14.27;100.00;100016.75;6394151;23;20037;-81
2021/10/05 11:25:58;;;;;;;16.95;13.77;;;;;;;14.19;100.00;100005.88;6394679;23;20341;-81
2021/10/05 11:28:32;;;;;;;19.48;15.50;;;;;;;14.15;100.00;100004.34;6394800;23;20430;-81
2021/10/05 11:31:06;;;;;;;19.05;15.88;;;;;;;14.13;100.00;100003.59;6393383;23;20088;-81